sensor_id;sensor_type;location;lat;lon;timestamp;P1;durP1;ratioP1;P2;durP2;ratioP2
68989;SDS011;56046;47.270;11.368;2024-01-30T00:00:55;4.83;;;2.03;;
68989;SDS011;56046;47.270;11.368;2024-01-30T00:03:20;5.73;;;2.10;;
68989;SDS011;56046;47.270;11.368;2024-01-30T00:05:46;4.37;;;1.73;;
68989;SDS011;56046;47.270;11.368;2024-01-30T00:08:11;5.60;;;2.17;;
68989;SDS011;56046;47.270;11.368;2024-01-30T00:10:37;5.17;;;2.00;;
68989;SDS011;56046;47.270;11.368;2024-01-30T00:13:02;6.03;;;2.20;;
68989;SDS011;56046;47.270;11.368;2024-01-30T00:15:27;4.63;;;1.87;;
68989;SDS011;56046;47.270;11.368;2024-01-30T00:17:53;5.15;;;1.70;;
68989;SDS011;56046;47.270;11.368;2024-01-30T00:20:18;4.53;;;1.60;;
68989;SDS011;56046;47.270;11.368;2024-01-30T00:22:43;5.70;;;2.10;;
68989;SDS011;56046;47.270;11.368;2024-01-30T00:25:09;6.13;;;2.33;;
68989;SDS011;56046;47.270;11.368;2024-01-30T00:27:34;7.07;;;2.77;;
68989;SDS011;56046;47.270;11.368;2024-01-30T00:29:59;10.13;;;2.90;;
68989;SDS011;56046;47.270;11.368;2024-01-30T00:32:25;7.27;;;3.60;;
68989;SDS011;56046;47.270;11.368;2024-01-30T00:34:50;8.07;;;3.63;;
68989;SDS011;56046;47.270;11.368;2024-01-30T00:37:16;8.93;;;4.10;;
68989;SDS011;56046;47.270;11.368;2024-01-30T00:39:41;8.63;;;4.20;;
68989;SDS011;56046;47.270;11.368;2024-01-30T00:42:07;9.00;;;3.97;;
68989;SDS011;56046;47.270;11.368;2024-01-30T00:44:34;11.07;;;4.40;;
68989;SDS011;56046;47.270;11.368;2024-01-30T00:46:59;9.23;;;4.20;;
68989;SDS011;56046;47.270;11.368;2024-01-30T00:49:25;6.57;;;2.57;;
68989;SDS011;56046;47.270;11.368;2024-01-30T00:51:50;5.50;;;2.07;;
68989;SDS011;56046;47.270;11.368;2024-01-30T00:54:15;7.70;;;2.60;;
68989;SDS011;56046;47.270;11.368;2024-01-30T00:56:40;4.83;;;2.13;;
68989;SDS011;56046;47.270;11.368;2024-01-30T00:59:06;6.73;;;2.03;;
68989;SDS011;56046;47.270;11.368;2024-01-30T01:01:31;5.47;;;2.00;;
68989;SDS011;56046;47.270;11.368;2024-01-30T01:03:56;6.93;;;2.00;;
68989;SDS011;56046;47.270;11.368;2024-01-30T01:06:23;5.18;;;1.80;;
68989;SDS011;56046;47.270;11.368;2024-01-30T01:08:48;5.03;;;1.87;;
68989;SDS011;56046;47.270;11.368;2024-01-30T01:11:13;6.33;;;1.90;;
68989;SDS011;56046;47.270;11.368;2024-01-30T01:13:39;4.82;;;1.88;;
68989;SDS011;56046;47.270;11.368;2024-01-30T01:16:05;4.93;;;1.80;;
68989;SDS011;56046;47.270;11.368;2024-01-30T01:18:30;5.10;;;2.23;;
68989;SDS011;56046;47.270;11.368;2024-01-30T01:20:55;4.83;;;2.30;;
68989;SDS011;56046;47.270;11.368;2024-01-30T01:23:20;7.53;;;2.60;;
68989;SDS011;56046;47.270;11.368;2024-01-30T01:25:46;8.70;;;2.87;;
68989;SDS011;56046;47.270;11.368;2024-01-30T01:28:11;5.47;;;2.30;;
68989;SDS011;56046;47.270;11.368;2024-01-30T01:30:36;6.07;;;2.43;;
68989;SDS011;56046;47.270;11.368;2024-01-30T01:33:01;5.60;;;2.23;;
68989;SDS011;56046;47.270;11.368;2024-01-30T01:35:27;5.55;;;2.20;;
68989;SDS011;56046;47.270;11.368;2024-01-30T01:37:53;5.03;;;2.17;;
68989;SDS011;56046;47.270;11.368;2024-01-30T01:40:25;4.80;;;1.60;;
68989;SDS011;56046;47.270;11.368;2024-01-30T01:42:50;7.32;;;2.20;;
68989;SDS011;56046;47.270;11.368;2024-01-30T01:45:17;5.40;;;1.77;;
68989;SDS011;56046;47.270;11.368;2024-01-30T01:47:42;5.37;;;1.63;;
68989;SDS011;56046;47.270;11.368;2024-01-30T01:50:07;5.07;;;1.50;;
68989;SDS011;56046;47.270;11.368;2024-01-30T01:52:33;4.47;;;1.77;;
68989;SDS011;56046;47.270;11.368;2024-01-30T01:54:58;7.07;;;2.70;;
68989;SDS011;56046;47.270;11.368;2024-01-30T01:57:24;7.80;;;2.93;;
68989;SDS011;56046;47.270;11.368;2024-01-30T01:59:49;8.82;;;4.38;;
68989;SDS011;56046;47.270;11.368;2024-01-30T02:02:14;7.40;;;3.00;;
68989;SDS011;56046;47.270;11.368;2024-01-30T02:04:42;5.90;;;2.30;;
68989;SDS011;56046;47.270;11.368;2024-01-30T02:07:08;6.45;;;2.42;;
68989;SDS011;56046;47.270;11.368;2024-01-30T02:09:33;8.45;;;3.00;;
68989;SDS011;56046;47.270;11.368;2024-01-30T02:11:58;5.18;;;2.13;;
68989;SDS011;56046;47.270;11.368;2024-01-30T02:14:23;5.60;;;1.80;;
68989;SDS011;56046;47.270;11.368;2024-01-30T02:16:49;4.07;;;1.90;;
68989;SDS011;56046;47.270;11.368;2024-01-30T02:21:37;8.52;;;3.03;;
68989;SDS011;56046;47.270;11.368;2024-01-30T02:24:02;7.13;;;3.30;;
68989;SDS011;56046;47.270;11.368;2024-01-30T02:26:28;9.47;;;3.33;;
68989;SDS011;56046;47.270;11.368;2024-01-30T02:28:53;8.40;;;3.03;;
68989;SDS011;56046;47.270;11.368;2024-01-30T02:31:18;10.40;;;3.13;;
68989;SDS011;56046;47.270;11.368;2024-01-30T02:33:43;7.85;;;2.83;;
68989;SDS011;56046;47.270;11.368;2024-01-30T02:36:09;7.47;;;2.50;;
68989;SDS011;56046;47.270;11.368;2024-01-30T02:38:34;6.80;;;2.30;;
68989;SDS011;56046;47.270;11.368;2024-01-30T02:40:59;6.77;;;2.90;;
68989;SDS011;56046;47.270;11.368;2024-01-30T02:43:25;5.43;;;2.60;;
68989;SDS011;56046;47.270;11.368;2024-01-30T02:45:50;6.87;;;2.50;;
68989;SDS011;56046;47.270;11.368;2024-01-30T02:48:15;5.63;;;2.27;;
68989;SDS011;56046;47.270;11.368;2024-01-30T02:50:40;7.00;;;2.03;;
68989;SDS011;56046;47.270;11.368;2024-01-30T02:53:06;5.23;;;1.97;;
68989;SDS011;56046;47.270;11.368;2024-01-30T02:55:31;6.17;;;1.83;;
68989;SDS011;56046;47.270;11.368;2024-01-30T02:57:56;4.47;;;1.30;;
68989;SDS011;56046;47.270;11.368;2024-01-30T03:00:21;5.90;;;2.37;;
68989;SDS011;56046;47.270;11.368;2024-01-30T03:02:47;6.83;;;2.00;;
68989;SDS011;56046;47.270;11.368;2024-01-30T03:05:12;4.40;;;1.77;;
68989;SDS011;56046;47.270;11.368;2024-01-30T03:07:37;5.43;;;1.90;;
68989;SDS011;56046;47.270;11.368;2024-01-30T03:10:04;5.53;;;1.80;;
68989;SDS011;56046;47.270;11.368;2024-01-30T03:12:29;7.72;;;2.58;;
68989;SDS011;56046;47.270;11.368;2024-01-30T03:14:54;7.23;;;2.77;;
68989;SDS011;56046;47.270;11.368;2024-01-30T03:17:19;7.33;;;2.93;;
68989;SDS011;56046;47.270;11.368;2024-01-30T03:19:45;5.37;;;2.30;;
68989;SDS011;56046;47.270;11.368;2024-01-30T03:22:10;4.23;;;1.97;;
68989;SDS011;56046;47.270;11.368;2024-01-30T03:24:35;4.80;;;1.77;;
68989;SDS011;56046;47.270;11.368;2024-01-30T03:27:00;4.47;;;1.50;;
68989;SDS011;56046;47.270;11.368;2024-01-30T03:29:26;4.13;;;1.57;;
68989;SDS011;56046;47.270;11.368;2024-01-30T03:31:51;4.40;;;1.20;;
68989;SDS011;56046;47.270;11.368;2024-01-30T03:34:16;3.80;;;1.40;;
68989;SDS011;56046;47.270;11.368;2024-01-30T03:36:42;3.40;;;1.57;;
68989;SDS011;56046;47.270;11.368;2024-01-30T03:39:07;4.30;;;1.53;;
68989;SDS011;56046;47.270;11.368;2024-01-30T03:41:32;4.25;;;1.65;;
68989;SDS011;56046;47.270;11.368;2024-01-30T03:43:58;3.47;;;1.30;;
68989;SDS011;56046;47.270;11.368;2024-01-30T03:46:23;2.88;;;1.30;;
68989;SDS011;56046;47.270;11.368;2024-01-30T03:48:48;4.07;;;1.27;;
68989;SDS011;56046;47.270;11.368;2024-01-30T03:51:14;4.87;;;1.60;;
68989;SDS011;56046;47.270;11.368;2024-01-30T03:53:41;3.90;;;1.35;;
68989;SDS011;56046;47.270;11.368;2024-01-30T03:56:07;3.55;;;1.20;;
68989;SDS011;56046;47.270;11.368;2024-01-30T03:58:32;4.13;;;1.60;;
68989;SDS011;56046;47.270;11.368;2024-01-30T04:00:57;3.77;;;1.37;;
68989;SDS011;56046;47.270;11.368;2024-01-30T04:03:22;5.00;;;1.50;;
68989;SDS011;56046;47.270;11.368;2024-01-30T04:05:48;3.60;;;1.30;;
68989;SDS011;56046;47.270;11.368;2024-01-30T04:08:13;4.77;;;1.60;;
68989;SDS011;56046;47.270;11.368;2024-01-30T04:10:38;4.33;;;1.70;;
68989;SDS011;56046;47.270;11.368;2024-01-30T04:13:03;3.73;;;1.50;;
68989;SDS011;56046;47.270;11.368;2024-01-30T04:15:28;3.97;;;1.30;;
68989;SDS011;56046;47.270;11.368;2024-01-30T04:17:57;4.47;;;1.30;;
68989;SDS011;56046;47.270;11.368;2024-01-30T04:20:22;3.55;;;1.23;;
68989;SDS011;56046;47.270;11.368;2024-01-30T04:22:47;5.30;;;1.40;;
68989;SDS011;56046;47.270;11.368;2024-01-30T04:25:13;3.50;;;1.20;;
68989;SDS011;56046;47.270;11.368;2024-01-30T04:27:38;3.13;;;1.10;;
68989;SDS011;56046;47.270;11.368;2024-01-30T04:30:04;2.83;;;0.90;;
68989;SDS011;56046;47.270;11.368;2024-01-30T04:32:29;3.43;;;1.23;;
68989;SDS011;56046;47.270;11.368;2024-01-30T04:34:54;4.30;;;1.30;;
68989;SDS011;56046;47.270;11.368;2024-01-30T04:37:20;7.13;;;1.90;;
68989;SDS011;56046;47.270;11.368;2024-01-30T04:39:45;4.50;;;1.60;;
68989;SDS011;56046;47.270;11.368;2024-01-30T04:42:10;5.17;;;1.70;;
68989;SDS011;56046;47.270;11.368;2024-01-30T04:44:35;4.83;;;1.73;;
68989;SDS011;56046;47.270;11.368;2024-01-30T04:47:01;5.47;;;1.93;;
68989;SDS011;56046;47.270;11.368;2024-01-30T04:49:26;6.43;;;1.70;;
68989;SDS011;56046;47.270;11.368;2024-01-30T04:51:52;3.45;;;1.05;;
68989;SDS011;56046;47.270;11.368;2024-01-30T04:54:17;3.10;;;1.20;;
68989;SDS011;56046;47.270;11.368;2024-01-30T04:56:42;3.00;;;1.20;;
68989;SDS011;56046;47.270;11.368;2024-01-30T04:59:07;2.93;;;1.10;;
68989;SDS011;56046;47.270;11.368;2024-01-30T05:01:33;2.57;;;1.10;;
68989;SDS011;56046;47.270;11.368;2024-01-30T05:03:58;4.10;;;1.23;;
68989;SDS011;56046;47.270;11.368;2024-01-30T05:06:27;4.30;;;1.50;;
68989;SDS011;56046;47.270;11.368;2024-01-30T05:08:52;4.70;;;1.13;;
68989;SDS011;56046;47.270;11.368;2024-01-30T05:11:17;3.43;;;1.20;;
68989;SDS011;56046;47.270;11.368;2024-01-30T05:13:42;3.40;;;1.00;;
68989;SDS011;56046;47.270;11.368;2024-01-30T05:16:08;3.10;;;1.20;;
68989;SDS011;56046;47.270;11.368;2024-01-30T05:18:33;3.40;;;1.10;;
68989;SDS011;56046;47.270;11.368;2024-01-30T05:20:58;3.25;;;1.30;;
68989;SDS011;56046;47.270;11.368;2024-01-30T05:23:24;2.60;;;1.10;;
68989;SDS011;56046;47.270;11.368;2024-01-30T05:25:49;2.60;;;0.93;;
68989;SDS011;56046;47.270;11.368;2024-01-30T05:28:14;4.10;;;1.50;;
68989;SDS011;56046;47.270;11.368;2024-01-30T05:30:39;5.90;;;2.03;;
68989;SDS011;56046;47.270;11.368;2024-01-30T05:33:05;5.27;;;1.80;;
68989;SDS011;56046;47.270;11.368;2024-01-30T05:35:30;6.83;;;2.40;;
68989;SDS011;56046;47.270;11.368;2024-01-30T05:37:55;7.67;;;3.53;;
68989;SDS011;56046;47.270;11.368;2024-01-30T05:40:20;8.73;;;3.40;;
68989;SDS011;56046;47.270;11.368;2024-01-30T05:42:46;7.27;;;3.50;;
68989;SDS011;56046;47.270;11.368;2024-01-30T05:45:11;9.00;;;4.80;;
68989;SDS011;56046;47.270;11.368;2024-01-30T05:47:36;7.63;;;3.77;;
68989;SDS011;56046;47.270;11.368;2024-01-30T05:50:01;7.60;;;3.40;;
68989;SDS011;56046;47.270;11.368;2024-01-30T05:52:28;10.85;;;4.05;;
68989;SDS011;56046;47.270;11.368;2024-01-30T05:54:53;24.03;;;8.40;;
68989;SDS011;56046;47.270;11.368;2024-01-30T05:57:18;45.27;;;14.00;;
68989;SDS011;56046;47.270;11.368;2024-01-30T05:59:44;22.63;;;7.50;;
68989;SDS011;56046;47.270;11.368;2024-01-30T06:02:10;13.47;;;4.57;;
68989;SDS011;56046;47.270;11.368;2024-01-30T06:04:36;11.10;;;3.08;;
68989;SDS011;56046;47.270;11.368;2024-01-30T06:07:01;6.47;;;1.63;;
68989;SDS011;56046;47.270;11.368;2024-01-30T06:09:27;3.97;;;1.30;;
68989;SDS011;56046;47.270;11.368;2024-01-30T06:11:52;3.00;;;1.23;;
68989;SDS011;56046;47.270;11.368;2024-01-30T06:14:17;3.53;;;1.33;;
68989;SDS011;56046;47.270;11.368;2024-01-30T06:16:43;5.57;;;1.67;;
68989;SDS011;56046;47.270;11.368;2024-01-30T06:19:08;3.47;;;1.27;;
68989;SDS011;56046;47.270;11.368;2024-01-30T06:21:33;3.20;;;1.20;;
68989;SDS011;56046;47.270;11.368;2024-01-30T06:24:01;4.25;;;1.73;;
68989;SDS011;56046;47.270;11.368;2024-01-30T06:26:27;2.53;;;0.70;;
68989;SDS011;56046;47.270;11.368;2024-01-30T06:28:52;4.27;;;1.20;;
68989;SDS011;56046;47.270;11.368;2024-01-30T06:31:17;3.80;;;1.30;;
68989;SDS011;56046;47.270;11.368;2024-01-30T06:33:42;3.00;;;1.20;;
68989;SDS011;56046;47.270;11.368;2024-01-30T06:36:08;3.73;;;1.10;;
68989;SDS011;56046;47.270;11.368;2024-01-30T06:38:33;4.27;;;0.97;;
68989;SDS011;56046;47.270;11.368;2024-01-30T06:40:58;5.70;;;0.97;;
68989;SDS011;56046;47.270;11.368;2024-01-30T06:43:24;2.50;;;0.97;;
68989;SDS011;56046;47.270;11.368;2024-01-30T06:45:49;4.63;;;1.20;;
68989;SDS011;56046;47.270;11.368;2024-01-30T06:48:15;3.75;;;1.27;;
68989;SDS011;56046;47.270;11.368;2024-01-30T06:50:40;3.17;;;1.20;;
68989;SDS011;56046;47.270;11.368;2024-01-30T06:53:06;4.40;;;1.20;;
68989;SDS011;56046;47.270;11.368;2024-01-30T06:55:31;6.07;;;1.10;;
68989;SDS011;56046;47.270;11.368;2024-01-30T06:57:56;2.63;;;1.10;;
68989;SDS011;56046;47.270;11.368;2024-01-30T07:00:21;2.87;;;1.30;;
68989;SDS011;56046;47.270;11.368;2024-01-30T07:02:47;3.22;;;0.80;;
68989;SDS011;56046;47.270;11.368;2024-01-30T07:05:12;3.43;;;1.00;;
68989;SDS011;56046;47.270;11.368;2024-01-30T07:07:38;4.13;;;1.40;;
68989;SDS011;56046;47.270;11.368;2024-01-30T07:10:03;4.20;;;1.70;;
68989;SDS011;56046;47.270;11.368;2024-01-30T07:12:30;8.15;;;1.88;;
68989;SDS011;56046;47.270;11.368;2024-01-30T07:14:55;4.82;;;1.35;;
68989;SDS011;56046;47.270;11.368;2024-01-30T07:17:21;2.77;;;1.00;;
68989;SDS011;56046;47.270;11.368;2024-01-30T07:19:46;3.17;;;0.97;;
68989;SDS011;56046;47.270;11.368;2024-01-30T07:22:12;4.47;;;1.23;;
68989;SDS011;56046;47.270;11.368;2024-01-30T07:24:41;2.77;;;1.20;;
68989;SDS011;56046;47.270;11.368;2024-01-30T07:27:07;5.35;;;1.15;;
68989;SDS011;56046;47.270;11.368;2024-01-30T07:29:32;2.13;;;0.70;;
68989;SDS011;56046;47.270;11.368;2024-01-30T07:31:57;2.83;;;0.90;;
68989;SDS011;56046;47.270;11.368;2024-01-30T07:34:23;3.43;;;0.90;;
68989;SDS011;56046;47.270;11.368;2024-01-30T07:36:48;2.87;;;1.00;;
68989;SDS011;56046;47.270;11.368;2024-01-30T07:39:13;2.80;;;1.03;;
68989;SDS011;56046;47.270;11.368;2024-01-30T07:41:38;2.93;;;1.30;;
68989;SDS011;56046;47.270;11.368;2024-01-30T07:44:04;2.57;;;0.87;;
68989;SDS011;56046;47.270;11.368;2024-01-30T07:46:29;3.07;;;0.97;;
68989;SDS011;56046;47.270;11.368;2024-01-30T07:48:54;3.45;;;1.48;;
68989;SDS011;56046;47.270;11.368;2024-01-30T07:51:20;5.45;;;2.45;;
68989;SDS011;56046;47.270;11.368;2024-01-30T07:53:51;6.20;;;2.80;;
68989;SDS011;56046;47.270;11.368;2024-01-30T07:56:17;7.72;;;2.55;;
68989;SDS011;56046;47.270;11.368;2024-01-30T07:58:42;6.60;;;3.17;;
68989;SDS011;56046;47.270;11.368;2024-01-30T08:01:07;5.67;;;2.33;;
68989;SDS011;56046;47.270;11.368;2024-01-30T08:03:33;5.87;;;1.80;;
68989;SDS011;56046;47.270;11.368;2024-01-30T08:05:59;4.70;;;1.40;;
68989;SDS011;56046;47.270;11.368;2024-01-30T08:08:24;3.83;;;1.77;;
68989;SDS011;56046;47.270;11.368;2024-01-30T08:10:50;5.18;;;1.80;;
68989;SDS011;56046;47.270;11.368;2024-01-30T08:13:16;3.90;;;1.70;;
68989;SDS011;56046;47.270;11.368;2024-01-30T08:15:41;4.00;;;1.67;;
68989;SDS011;56046;47.270;11.368;2024-01-30T08:18:06;4.10;;;1.40;;
68989;SDS011;56046;47.270;11.368;2024-01-30T08:20:32;4.93;;;1.50;;
68989;SDS011;56046;47.270;11.368;2024-01-30T08:22:57;4.80;;;1.60;;
68989;SDS011;56046;47.270;11.368;2024-01-30T08:25:22;4.47;;;1.53;;
68989;SDS011;56046;47.270;11.368;2024-01-30T08:27:47;7.97;;;3.43;;
68989;SDS011;56046;47.270;11.368;2024-01-30T08:30:13;9.60;;;4.67;;
68989;SDS011;56046;47.270;11.368;2024-01-30T08:32:39;9.87;;;4.57;;
68989;SDS011;56046;47.270;11.368;2024-01-30T08:35:04;14.03;;;5.57;;
68989;SDS011;56046;47.270;11.368;2024-01-30T08:37:29;11.35;;;5.13;;
68989;SDS011;56046;47.270;11.368;2024-01-30T08:39:55;13.27;;;4.87;;
68989;SDS011;56046;47.270;11.368;2024-01-30T08:42:20;10.20;;;4.33;;
68989;SDS011;56046;47.270;11.368;2024-01-30T08:44:47;11.90;;;3.85;;
68989;SDS011;56046;47.270;11.368;2024-01-30T08:47:13;8.43;;;3.77;;
68989;SDS011;56046;47.270;11.368;2024-01-30T08:49:38;7.50;;;3.30;;
68989;SDS011;56046;47.270;11.368;2024-01-30T08:52:03;7.90;;;3.37;;
68989;SDS011;56046;47.270;11.368;2024-01-30T08:54:29;5.20;;;2.30;;
68989;SDS011;56046;47.270;11.368;2024-01-30T08:56:54;3.27;;;1.53;;
68989;SDS011;56046;47.270;11.368;2024-01-30T08:59:21;5.15;;;2.15;;
68989;SDS011;56046;47.270;11.368;2024-01-30T09:01:46;5.40;;;2.40;;
68989;SDS011;56046;47.270;11.368;2024-01-30T09:04:12;5.03;;;2.20;;
68989;SDS011;56046;47.270;11.368;2024-01-30T09:06:37;7.60;;;2.27;;
68989;SDS011;56046;47.270;11.368;2024-01-30T09:09:04;5.33;;;2.20;;
68989;SDS011;56046;47.270;11.368;2024-01-30T09:11:30;5.78;;;2.33;;
68989;SDS011;56046;47.270;11.368;2024-01-30T09:13:55;6.83;;;2.27;;
68989;SDS011;56046;47.270;11.368;2024-01-30T09:16:20;5.80;;;2.10;;
68989;SDS011;56046;47.270;11.368;2024-01-30T09:18:45;5.57;;;2.23;;
68989;SDS011;56046;47.270;11.368;2024-01-30T09:21:10;4.33;;;1.73;;
68989;SDS011;56046;47.270;11.368;2024-01-30T09:23:36;6.10;;;2.20;;
68989;SDS011;56046;47.270;11.368;2024-01-30T09:26:01;5.83;;;2.50;;
68989;SDS011;56046;47.270;11.368;2024-01-30T09:28:26;6.53;;;2.83;;
68989;SDS011;56046;47.270;11.368;2024-01-30T09:30:52;5.93;;;2.00;;
68989;SDS011;56046;47.270;11.368;2024-01-30T09:33:17;4.87;;;2.20;;
68989;SDS011;56046;47.270;11.368;2024-01-30T09:35:42;7.40;;;2.67;;
68989;SDS011;56046;47.270;11.368;2024-01-30T09:38:07;5.00;;;2.40;;
68989;SDS011;56046;47.270;11.368;2024-01-30T09:40:33;6.53;;;2.90;;
68989;SDS011;56046;47.270;11.368;2024-01-30T09:42:58;6.93;;;2.77;;
68989;SDS011;56046;47.270;11.368;2024-01-30T09:45:25;7.95;;;2.58;;
68989;SDS011;56046;47.270;11.368;2024-01-30T09:47:50;6.57;;;2.80;;
68989;SDS011;56046;47.270;11.368;2024-01-30T09:50:16;7.00;;;2.90;;
68989;SDS011;56046;47.270;11.368;2024-01-30T09:52:42;6.43;;;2.90;;
68989;SDS011;56046;47.270;11.368;2024-01-30T09:55:08;6.55;;;3.20;;
68989;SDS011;56046;47.270;11.368;2024-01-30T09:57:36;9.23;;;3.53;;
68989;SDS011;56046;47.270;11.368;2024-01-30T10:00:05;8.55;;;3.20;;
68989;SDS011;56046;47.270;11.368;2024-01-30T10:02:32;6.38;;;3.17;;
68989;SDS011;56046;47.270;11.368;2024-01-30T10:04:58;9.37;;;3.80;;
68989;SDS011;56046;47.270;11.368;2024-01-30T10:07:24;6.35;;;2.97;;
68989;SDS011;56046;47.270;11.368;2024-01-30T10:09:49;10.17;;;3.30;;
68989;SDS011;56046;47.270;11.368;2024-01-30T10:12:15;6.53;;;3.13;;
68989;SDS011;56046;47.270;11.368;2024-01-30T10:14:40;7.67;;;2.97;;
68989;SDS011;56046;47.270;11.368;2024-01-30T10:17:07;8.23;;;3.03;;
68989;SDS011;56046;47.270;11.368;2024-01-30T10:19:32;7.40;;;2.65;;
68989;SDS011;56046;47.270;11.368;2024-01-30T10:21:59;7.50;;;3.70;;
68989;SDS011;56046;47.270;11.368;2024-01-30T10:24:24;8.15;;;3.03;;
68989;SDS011;56046;47.270;11.368;2024-01-30T10:26:50;9.20;;;3.67;;
68989;SDS011;56046;47.270;11.368;2024-01-30T10:29:16;7.00;;;2.77;;
68989;SDS011;56046;47.270;11.368;2024-01-30T10:31:41;6.28;;;2.63;;
68989;SDS011;56046;47.270;11.368;2024-01-30T10:34:07;5.80;;;2.93;;
68989;SDS011;56046;47.270;11.368;2024-01-30T10:36:32;7.67;;;2.83;;
68989;SDS011;56046;47.270;11.368;2024-01-30T10:38:59;8.55;;;2.95;;
68989;SDS011;56046;47.270;11.368;2024-01-30T10:41:26;6.57;;;2.37;;
68989;SDS011;56046;47.270;11.368;2024-01-30T10:43:55;6.75;;;2.00;;
68989;SDS011;56046;47.270;11.368;2024-01-30T10:46:23;6.25;;;2.85;;
68989;SDS011;56046;47.270;11.368;2024-01-30T10:48:58;6.43;;;2.80;;
68989;SDS011;56046;47.270;11.368;2024-01-30T10:51:27;6.78;;;2.42;;
68989;SDS011;56046;47.270;11.368;2024-01-30T10:53:52;6.17;;;2.43;;
68989;SDS011;56046;47.270;11.368;2024-01-30T10:56:20;6.63;;;2.40;;
68989;SDS011;56046;47.270;11.368;2024-01-30T10:58:46;5.13;;;2.30;;
68989;SDS011;56046;47.270;11.368;2024-01-30T11:01:11;5.63;;;2.17;;
68989;SDS011;56046;47.270;11.368;2024-01-30T11:03:37;4.95;;;2.17;;
68989;SDS011;56046;47.270;11.368;2024-01-30T11:06:02;5.97;;;1.70;;
68989;SDS011;56046;47.270;11.368;2024-01-30T11:08:28;9.80;;;2.03;;
68989;SDS011;56046;47.270;11.368;2024-01-30T11:10:56;5.60;;;1.88;;
68989;SDS011;56046;47.270;11.368;2024-01-30T11:13:31;6.63;;;2.10;;
68989;SDS011;56046;47.270;11.368;2024-01-30T11:16:00;6.85;;;2.55;;
68989;SDS011;56046;47.270;11.368;2024-01-30T11:18:25;8.52;;;2.53;;
68989;SDS011;56046;47.270;11.368;2024-01-30T11:20:51;8.60;;;2.47;;
68989;SDS011;56046;47.270;11.368;2024-01-30T11:23:16;5.63;;;2.03;;
68989;SDS011;56046;47.270;11.368;2024-01-30T11:25:43;6.40;;;2.40;;
68989;SDS011;56046;47.270;11.368;2024-01-30T11:28:14;7.38;;;2.83;;
68989;SDS011;56046;47.270;11.368;2024-01-30T11:30:40;5.87;;;2.40;;
68989;SDS011;56046;47.270;11.368;2024-01-30T11:33:09;4.63;;;2.07;;
68989;SDS011;56046;47.270;11.368;2024-01-30T11:35:36;5.85;;;2.40;;
68989;SDS011;56046;47.270;11.368;2024-01-30T11:38:02;5.50;;;2.40;;
68989;SDS011;56046;47.270;11.368;2024-01-30T11:40:28;5.97;;;2.33;;
68989;SDS011;56046;47.270;11.368;2024-01-30T11:42:54;6.93;;;2.97;;
68989;SDS011;56046;47.270;11.368;2024-01-30T11:45:20;5.63;;;2.30;;
68989;SDS011;56046;47.270;11.368;2024-01-30T11:47:45;5.00;;;2.20;;
68989;SDS011;56046;47.270;11.368;2024-01-30T11:50:10;12.37;;;1.90;;
68989;SDS011;56046;47.270;11.368;2024-01-30T11:52:36;3.73;;;1.80;;
68989;SDS011;56046;47.270;11.368;2024-01-30T11:55:01;4.97;;;1.98;;
68989;SDS011;56046;47.270;11.368;2024-01-30T11:57:27;5.03;;;2.00;;
68989;SDS011;56046;47.270;11.368;2024-01-30T11:59:53;5.40;;;2.03;;
68989;SDS011;56046;47.270;11.368;2024-01-30T12:02:18;3.88;;;1.92;;
68989;SDS011;56046;47.270;11.368;2024-01-30T12:04:43;4.40;;;1.90;;
68989;SDS011;56046;47.270;11.368;2024-01-30T12:07:09;5.40;;;1.80;;
68989;SDS011;56046;47.270;11.368;2024-01-30T12:09:34;7.87;;;1.70;;
68989;SDS011;56046;47.270;11.368;2024-01-30T12:11:59;3.20;;;1.77;;
68989;SDS011;56046;47.270;11.368;2024-01-30T12:14:25;6.37;;;2.00;;
68989;SDS011;56046;47.270;11.368;2024-01-30T12:16:51;3.63;;;1.70;;
68989;SDS011;56046;47.270;11.368;2024-01-30T12:19:25;4.73;;;1.80;;
68989;SDS011;56046;47.270;11.368;2024-01-30T12:21:54;4.45;;;1.42;;
68989;SDS011;56046;47.270;11.368;2024-01-30T12:24:20;5.53;;;1.85;;
68989;SDS011;56046;47.270;11.368;2024-01-30T12:26:45;5.50;;;1.33;;
68989;SDS011;56046;47.270;11.368;2024-01-30T12:29:10;4.07;;;1.80;;
68989;SDS011;56046;47.270;11.368;2024-01-30T12:31:36;4.87;;;1.63;;
68989;SDS011;56046;47.270;11.368;2024-01-30T12:34:01;4.10;;;1.57;;
68989;SDS011;56046;47.270;11.368;2024-01-30T12:36:26;6.80;;;1.93;;
68989;SDS011;56046;47.270;11.368;2024-01-30T12:38:53;4.38;;;1.50;;
68989;SDS011;56046;47.270;11.368;2024-01-30T12:41:19;7.43;;;1.87;;
68989;SDS011;56046;47.270;11.368;2024-01-30T12:43:45;3.15;;;1.40;;
68989;SDS011;56046;47.270;11.368;2024-01-30T12:46:10;9.80;;;1.60;;
68989;SDS011;56046;47.270;11.368;2024-01-30T12:48:35;4.53;;;1.60;;
68989;SDS011;56046;47.270;11.368;2024-01-30T12:51:00;3.63;;;1.50;;
68989;SDS011;56046;47.270;11.368;2024-01-30T12:53:26;2.97;;;1.33;;
68989;SDS011;56046;47.270;11.368;2024-01-30T12:55:51;3.00;;;1.60;;
68989;SDS011;56046;47.270;11.368;2024-01-30T12:58:16;3.03;;;1.20;;
68989;SDS011;56046;47.270;11.368;2024-01-30T13:00:42;3.30;;;1.30;;
68989;SDS011;56046;47.270;11.368;2024-01-30T13:03:08;4.03;;;1.25;;
68989;SDS011;56046;47.270;11.368;2024-01-30T13:05:34;5.30;;;1.53;;
68989;SDS011;56046;47.270;11.368;2024-01-30T13:07:59;5.13;;;1.60;;
68989;SDS011;56046;47.270;11.368;2024-01-30T13:10:24;4.57;;;1.40;;
68989;SDS011;56046;47.270;11.368;2024-01-30T13:12:49;3.80;;;1.30;;
68989;SDS011;56046;47.270;11.368;2024-01-30T13:15:15;3.43;;;1.27;;
68989;SDS011;56046;47.270;11.368;2024-01-30T13:17:40;2.65;;;1.25;;
68989;SDS011;56046;47.270;11.368;2024-01-30T13:20:07;3.70;;;1.50;;
68989;SDS011;56046;47.270;11.368;2024-01-30T13:22:33;4.30;;;1.70;;
68989;SDS011;56046;47.270;11.368;2024-01-30T13:24:58;4.87;;;1.37;;
68989;SDS011;56046;47.270;11.368;2024-01-30T13:27:24;3.30;;;1.43;;
68989;SDS011;56046;47.270;11.368;2024-01-30T13:29:49;3.70;;;1.33;;
68989;SDS011;56046;47.270;11.368;2024-01-30T13:32:14;3.83;;;1.70;;
68989;SDS011;56046;47.270;11.368;2024-01-30T13:34:39;7.17;;;1.20;;
68989;SDS011;56046;47.270;11.368;2024-01-30T13:37:06;4.78;;;1.40;;
68989;SDS011;56046;47.270;11.368;2024-01-30T13:39:31;5.03;;;1.50;;
68989;SDS011;56046;47.270;11.368;2024-01-30T13:41:56;3.43;;;1.30;;
68989;SDS011;56046;47.270;11.368;2024-01-30T13:44:21;3.17;;;1.30;;
68989;SDS011;56046;47.270;11.368;2024-01-30T13:46:47;4.20;;;1.17;;
68989;SDS011;56046;47.270;11.368;2024-01-30T13:49:12;4.67;;;1.40;;
68989;SDS011;56046;47.270;11.368;2024-01-30T13:51:37;3.70;;;1.30;;
68989;SDS011;56046;47.270;11.368;2024-01-30T13:54:02;3.17;;;1.50;;
68989;SDS011;56046;47.270;11.368;2024-01-30T13:56:28;2.70;;;1.13;;
68989;SDS011;56046;47.270;11.368;2024-01-30T13:58:54;5.10;;;1.27;;
68989;SDS011;56046;47.270;11.368;2024-01-30T14:01:21;3.37;;;1.10;;
68989;SDS011;56046;47.270;11.368;2024-01-30T14:03:47;4.72;;;1.10;;
68989;SDS011;56046;47.270;11.368;2024-01-30T14:06:12;3.43;;;1.30;;
68989;SDS011;56046;47.270;11.368;2024-01-30T14:08:37;5.37;;;1.27;;
68989;SDS011;56046;47.270;11.368;2024-01-30T14:11:03;4.93;;;1.57;;
68989;SDS011;56046;47.270;11.368;2024-01-30T14:13:28;4.00;;;1.20;;
68989;SDS011;56046;47.270;11.368;2024-01-30T14:15:54;4.00;;;1.30;;
68989;SDS011;56046;47.270;11.368;2024-01-30T14:18:19;4.37;;;1.17;;
68989;SDS011;56046;47.270;11.368;2024-01-30T14:20:45;2.50;;;1.20;;
68989;SDS011;56046;47.270;11.368;2024-01-30T14:23:10;3.87;;;1.33;;
68989;SDS011;56046;47.270;11.368;2024-01-30T14:25:35;2.63;;;1.37;;